sensor_id;sensor_type;location;lat;lon;timestamp;temperature;humidity
71096;DHT22;58753;49.440;11.126;2022-12-20T00:01:16;0.21;90.95
71096;DHT22;58753;49.440;11.126;2022-12-20T00:03:42;0.22;91.04
71096;DHT22;58753;49.440;11.126;2022-12-20T00:06:09;0.25;91.04
71096;DHT22;58753;49.440;11.126;2022-12-20T00:08:35;0.25;90.98
71096;DHT22;58753;49.440;11.126;2022-12-20T00:11:02;0.25;90.95
71096;DHT22;58753;49.440;11.126;2022-12-20T00:13:29;0.26;90.95
71096;DHT22;58753;49.440;11.126;2022-12-20T00:16:13;0.28;91.05
71096;DHT22;58753;49.440;11.126;2022-12-20T00:18:40;0.34;91.02
71096;DHT22;58753;49.440;11.126;2022-12-20T00:21:08;0.35;90.99
71096;DHT22;58753;49.440;11.126;2022-12-20T00:23:34;0.35;91.03
71096;DHT22;58753;49.440;11.126;2022-12-20T00:28:26;0.40;90.99
71096;DHT22;58753;49.440;11.126;2022-12-20T00:30:53;0.44;91.20
71096;DHT22;58753;49.440;11.126;2022-12-20T00:33:18;0.49;91.03
71096;DHT22;58753;49.440;11.126;2022-12-20T00:35:43;0.48;90.82
71096;DHT22;58753;49.440;11.126;2022-12-20T00:38:09;0.41;90.68
71096;DHT22;58753;49.440;11.126;2022-12-20T00:40:34;0.40;90.62
71096;DHT22;58753;49.440;11.126;2022-12-20T00:43:00;0.31;90.58
71096;DHT22;58753;49.440;11.126;2022-12-20T00:45:25;0.28;90.61
71096;DHT22;58753;49.440;11.126;2022-12-20T00:47:50;0.22;90.58
71096;DHT22;58753;49.440;11.126;2022-12-20T00:50:16;0.24;90.76
71096;DHT22;58753;49.440;11.126;2022-12-20T00:52:41;0.28;90.86
71096;DHT22;58753;49.440;11.126;2022-12-20T00:55:06;0.31;90.90
71096;DHT22;58753;49.440;11.126;2022-12-20T00:57:32;0.32;90.85
71096;DHT22;58753;49.440;11.126;2022-12-20T00:59:57;0.35;90.97
71096;DHT22;58753;49.440;11.126;2022-12-20T01:02:23;0.37;90.89
71096;DHT22;58753;49.440;11.126;2022-12-20T01:04:48;0.35;90.75
71096;DHT22;58753;49.440;11.126;2022-12-20T01:07:14;0.34;90.72
71096;DHT22;58753;49.440;11.126;2022-12-20T01:09:39;0.31;90.72
71096;DHT22;58753;49.440;11.126;2022-12-20T01:12:05;0.31;90.77
71096;DHT22;58753;49.440;11.126;2022-12-20T01:14:30;0.29;90.80
71096;DHT22;58753;49.440;11.126;2022-12-20T01:16:56;0.34;90.83
71096;DHT22;58753;49.440;11.126;2022-12-20T01:19:21;0.32;90.82
71096;DHT22;58753;49.440;11.126;2022-12-20T01:21:46;0.32;90.93
71096;DHT22;58753;49.440;11.126;2022-12-20T01:24:16;0.35;90.91
71096;DHT22;58753;49.440;11.126;2022-12-20T01:26:43;0.35;90.95
71096;DHT22;58753;49.440;11.126;2022-12-20T01:29:09;0.38;90.89
71096;DHT22;58753;49.440;11.126;2022-12-20T01:31:35;0.37;90.85
71096;DHT22;58753;49.440;11.126;2022-12-20T01:34:01;0.35;90.74
71096;DHT22;58753;49.440;11.126;2022-12-20T01:36:31;0.32;90.82
71096;DHT22;58753;49.440;11.126;2022-12-20T01:39:08;0.31;90.86
71096;DHT22;58753;49.440;11.126;2022-12-20T01:41:34;0.31;90.98
71096;DHT22;58753;49.440;11.126;2022-12-20T01:44:47;0.34;90.89
71096;DHT22;58753;49.440;11.126;2022-12-20T01:46:51;0.35;90.93
71096;DHT22;58753;49.440;11.126;2022-12-20T01:51:55;0.34;90.82
71096;DHT22;58753;49.440;11.126;2022-12-20T01:54:32;0.31;90.75
71096;DHT22;58753;49.440;11.126;2022-12-20T01:57:02;0.29;90.80
71096;DHT22;58753;49.440;11.126;2022-12-20T01:59:30;0.28;90.86
71096;DHT22;58753;49.440;11.126;2022-12-20T02:02:01;0.31;90.93
71096;DHT22;58753;49.440;11.126;2022-12-20T02:04:28;0.26;90.90
71096;DHT22;58753;49.440;11.126;2022-12-20T02:06:54;0.25;90.89
71096;DHT22;58753;49.440;11.126;2022-12-20T02:09:20;0.24;90.77
71096;DHT22;58753;49.440;11.126;2022-12-20T02:14:47;0.17;90.80
71096;DHT22;58753;49.440;11.126;2022-12-20T02:17:26;0.11;90.82
71096;DHT22;58753;49.440;11.126;2022-12-20T02:20:15;0.14;90.97
71096;DHT22;58753;49.440;11.126;2022-12-20T02:29:17;0.28;91.13
71096;DHT22;58753;49.440;11.126;2022-12-20T02:31:47;0.31;91.09
71096;DHT22;58753;49.440;11.126;2022-12-20T02:34:15;0.31;90.96
71096;DHT22;58753;49.440;11.126;2022-12-20T02:36:41;0.32;90.94
71096;DHT22;58753;49.440;11.126;2022-12-20T02:39:10;0.32;90.93
71096;DHT22;58753;49.440;11.126;2022-12-20T02:41:42;0.31;90.90
71096;DHT22;58753;49.440;11.126;2022-12-20T02:44:13;0.29;90.92
71096;DHT22;58753;49.440;11.126;2022-12-20T02:47:00;0.32;90.92
71096;DHT22;58753;49.440;11.126;2022-12-20T02:49:29;0.35;90.98
71096;DHT22;58753;49.440;11.126;2022-12-20T02:51:56;0.41;91.14
71096;DHT22;58753;49.440;11.126;2022-12-20T02:54:22;0.41;90.96
71096;DHT22;58753;49.440;11.126;2022-12-20T02:56:58;0.44;91.12
71096;DHT22;58753;49.440;11.126;2022-12-20T02:59:29;0.49;91.03
71096;DHT22;58753;49.440;11.126;2022-12-20T03:01:56;0.49;90.93
71096;DHT22;58753;49.440;11.126;2022-12-20T03:04:25;0.45;90.75
71096;DHT22;58753;49.440;11.126;2022-12-20T03:07:03;0.44;90.72
71096;DHT22;58753;49.440;11.126;2022-12-20T03:09:30;0.42;90.87
71096;DHT22;58753;49.440;11.126;2022-12-20T03:11:56;0.46;91.02
71096;DHT22;58753;49.440;11.126;2022-12-20T03:14:22;0.49;91.01
71096;DHT22;58753;49.440;11.126;2022-12-20T03:16:48;0.53;90.96
71096;DHT22;58753;49.440;11.126;2022-12-20T03:19:13;0.51;90.85
71096;DHT22;58753;49.440;11.126;2022-12-20T03:21:38;0.51;90.82
71096;DHT22;58753;49.440;11.126;2022-12-20T03:24:04;0.53;90.77
71096;DHT22;58753;49.440;11.126;2022-12-20T03:26:29;0.51;90.76
71096;DHT22;58753;49.440;11.126;2022-12-20T03:28:55;0.52;90.69
71096;DHT22;58753;49.440;11.126;2022-12-20T03:31:20;0.56;90.72
71096;DHT22;58753;49.440;11.126;2022-12-20T03:33:46;0.53;90.57
71096;DHT22;58753;49.440;11.126;2022-12-20T03:36:11;0.53;90.56
71096;DHT22;58753;49.440;11.126;2022-12-20T03:38:37;0.49;90.44
71096;DHT22;58753;49.440;11.126;2022-12-20T03:41:02;0.49;90.45
71096;DHT22;58753;49.440;11.126;2022-12-20T03:43:28;0.46;90.44
71096;DHT22;58753;49.440;11.126;2022-12-20T03:45:53;0.48;90.37
71096;DHT22;58753;49.440;11.126;2022-12-20T03:48:18;0.45;90.40
71096;DHT22;58753;49.440;11.126;2022-12-20T03:50:44;0.45;90.47
71096;DHT22;58753;49.440;11.126;2022-12-20T03:53:09;0.46;90.39
71096;DHT22;58753;49.440;11.126;2022-12-20T03:55:35;0.51;90.50
71096;DHT22;58753;49.440;11.126;2022-12-20T03:58:00;0.51;90.48
71096;DHT22;58753;49.440;11.126;2022-12-20T04:00:26;0.49;90.37
71096;DHT22;58753;49.440;11.126;2022-12-20T04:02:51;0.49;90.45
71096;DHT22;58753;49.440;11.126;2022-12-20T04:05:17;0.52;90.39
71096;DHT22;58753;49.440;11.126;2022-12-20T04:07:42;0.51;90.43
71096;DHT22;58753;49.440;11.126;2022-12-20T04:10:09;0.49;90.36
71096;DHT22;58753;49.440;11.126;2022-12-20T04:12:35;0.46;90.27
71096;DHT22;58753;49.440;11.126;2022-12-20T04:15:00;0.44;90.24
71096;DHT22;58753;49.440;11.126;2022-12-20T04:17:26;0.40;90.22
71096;DHT22;58753;49.440;11.126;2022-12-20T04:19:51;0.37;90.29
71096;DHT22;58753;49.440;11.126;2022-12-20T04:22:16;0.31;90.19
71096;DHT22;58753;49.440;11.126;2022-12-20T04:24:42;0.26;90.20
71096;DHT22;58753;49.440;11.126;2022-12-20T04:27:07;0.24;90.20
71096;DHT22;58753;49.440;11.126;2022-12-20T04:29:33;0.21;90.26
71096;DHT22;58753;49.440;11.126;2022-12-20T04:31:58;0.21;90.28
71096;DHT22;58753;49.440;11.126;2022-12-20T04:34:24;0.22;90.48
71096;DHT22;58753;49.440;11.126;2022-12-20T04:36:49;0.24;90.46
71096;DHT22;58753;49.440;11.126;2022-12-20T04:39:15;0.21;90.51
71096;DHT22;58753;49.440;11.126;2022-12-20T04:41:40;0.28;90.56
71096;DHT22;58753;49.440;11.126;2022-12-20T04:44:05;0.25;90.46
71096;DHT22;58753;49.440;11.126;2022-12-20T04:46:31;0.24;90.52
71096;DHT22;58753;49.440;11.126;2022-12-20T04:48:56;0.28;90.67
71096;DHT22;58753;49.440;11.126;2022-12-20T04:51:22;0.29;90.64
71096;DHT22;58753;49.440;11.126;2022-12-20T04:53:47;0.29;90.62
71096;DHT22;58753;49.440;11.126;2022-12-20T04:56:15;0.26;90.62
71096;DHT22;58753;49.440;11.126;2022-12-20T04:58:40;0.25;90.57
71096;DHT22;58753;49.440;11.126;2022-12-20T05:01:06;0.26;90.63
71096;DHT22;58753;49.440;11.126;2022-12-20T05:03:31;0.25;90.75
71096;DHT22;58753;49.440;11.126;2022-12-20T05:05:57;0.26;90.72
71096;DHT22;58753;49.440;11.126;2022-12-20T05:08:22;0.28;90.82
71096;DHT22;58753;49.440;11.126;2022-12-20T05:10:48;0.31;90.94
71096;DHT22;58753;49.440;11.126;2022-12-20T05:13:13;0.34;90.99
71096;DHT22;58753;49.440;11.126;2022-12-20T05:15:39;0.37;91.04
71096;DHT22;58753;49.440;11.126;2022-12-20T05:18:04;0.40;91.08
71096;DHT22;58753;49.440;11.126;2022-12-20T05:20:30;0.41;90.94
71096;DHT22;58753;49.440;11.126;2022-12-20T05:22:56;0.40;90.91
71096;DHT22;58753;49.440;11.126;2022-12-20T05:25:43;0.38;90.87
71096;DHT22;58753;49.440;11.126;2022-12-20T05:28:29;0.40;90.95
71096;DHT22;58753;49.440;11.126;2022-12-20T05:30:54;0.45;91.01
71096;DHT22;58753;49.440;11.126;2022-12-20T05:33:20;0.46;91.03
71096;DHT22;58753;49.440;11.126;2022-12-20T05:35:45;0.51;91.01
71096;DHT22;58753;49.440;11.126;2022-12-20T05:38:11;0.52;90.81
71096;DHT22;58753;49.440;11.126;2022-12-20T05:40:36;0.53;90.75
71096;DHT22;58753;49.440;11.126;2022-12-20T05:43:02;0.55;90.78
71096;DHT22;58753;49.440;11.126;2022-12-20T05:45:27;0.52;90.75
71096;DHT22;58753;49.440;11.126;2022-12-20T05:47:52;0.53;90.72
71096;DHT22;58753;49.440;11.126;2022-12-20T05:50:18;0.56;90.81
71096;DHT22;58753;49.440;11.126;2022-12-20T05:52:43;0.62;90.78
71096;DHT22;58753;49.440;11.126;2022-12-20T05:55:09;0.63;90.75
71096;DHT22;58753;49.440;11.126;2022-12-20T05:57:34;0.68;90.75
71096;DHT22;58753;49.440;11.126;2022-12-20T06:00:00;0.72;90.77
71096;DHT22;58753;49.440;11.126;2022-12-20T06:02:26;0.76;90.79
71096;DHT22;58753;49.440;11.126;2022-12-20T06:04:52;0.76;90.64
71096;DHT22;58753;49.440;11.126;2022-12-20T06:07:17;0.77;90.52
71096;DHT22;58753;49.440;11.126;2022-12-20T06:09:43;0.76;90.59
71096;DHT22;58753;49.440;11.126;2022-12-20T06:12:09;0.82;90.67
71096;DHT22;58753;49.440;11.126;2022-12-20T06:14:34;0.82;90.64
71096;DHT22;58753;49.440;11.126;2022-12-20T06:17:00;0.80;90.47
71096;DHT22;58753;49.440;11.126;2022-12-20T06:19:25;0.82;90.49
71096;DHT22;58753;49.440;11.126;2022-12-20T06:21:51;0.82;90.51
71096;DHT22;58753;49.440;11.126;2022-12-20T06:24:16;0.85;90.52
71096;DHT22;58753;49.440;11.126;2022-12-20T06:26:41;0.86;90.47
71096;DHT22;58753;49.440;11.126;2022-12-20T06:29:07;0.86;90.33
71096;DHT22;58753;49.440;11.126;2022-12-20T06:31:34;0.89;90.54
71096;DHT22;58753;49.440;11.126;2022-12-20T06:34:00;0.92;90.43
71096;DHT22;58753;49.440;11.126;2022-12-20T06:36:25;0.90;90.28
71096;DHT22;58753;49.440;11.126;2022-12-20T06:38:51;0.92;90.23
71096;DHT22;58753;49.440;11.126;2022-12-20T06:41:16;0.93;90.37
71096;DHT22;58753;49.440;11.126;2022-12-20T06:43:42;0.97;90.29
71096;DHT22;58753;49.440;11.126;2022-12-20T06:46:07;0.93;90.18
71096;DHT22;58753;49.440;11.126;2022-12-20T06:48:33;0.93;90.14
71096;DHT22;58753;49.440;11.126;2022-12-20T06:50:58;0.97;90.22
71096;DHT22;58753;49.440;11.126;2022-12-20T06:53:23;1.00;90.15
71096;DHT22;58753;49.440;11.126;2022-12-20T06:55:49;1.00;90.08
71096;DHT22;58753;49.440;11.126;2022-12-20T06:58:16;1.00;90.03
71096;DHT22;58753;49.440;11.126;2022-12-20T07:00:41;1.03;90.10
71096;DHT22;58753;49.440;11.126;2022-12-20T07:03:06;1.07;90.10
71096;DHT22;58753;49.440;11.126;2022-12-20T07:05:32;1.10;89.98
71096;DHT22;58753;49.440;11.126;2022-12-20T07:07:57;1.07;89.91
71096;DHT22;58753;49.440;11.126;2022-12-20T07:10:23;1.03;89.79
71096;DHT22;58753;49.440;11.126;2022-12-20T07:12:48;1.07;89.84
71096;DHT22;58753;49.440;11.126;2022-12-20T07:15:13;1.07;89.86
71096;DHT22;58753;49.440;11.126;2022-12-20T07:17:39;1.08;89.93
71096;DHT22;58753;49.440;11.126;2022-12-20T07:20:05;1.13;90.03
71096;DHT22;58753;49.440;11.126;2022-12-20T07:22:31;1.17;89.99
71096;DHT22;58753;49.440;11.126;2022-12-20T07:24:58;1.19;89.90
71096;DHT22;58753;49.440;11.126;2022-12-20T07:27:24;1.23;89.82
71096;DHT22;58753;49.440;11.126;2022-12-20T07:29:50;1.20;89.73
71096;DHT22;58753;49.440;11.126;2022-12-20T07:32:15;1.22;89.69
71096;DHT22;58753;49.440;11.126;2022-12-20T07:34:41;1.20;89.61
71096;DHT22;58753;49.440;11.126;2022-12-20T07:37:07;1.20;89.61
71096;DHT22;58753;49.440;11.126;2022-12-20T07:39:33;1.24;89.63
71096;DHT22;58753;49.440;11.126;2022-12-20T07:41:58;1.24;89.55
71096;DHT22;58753;49.440;11.126;2022-12-20T07:44:24;1.28;89.52
71096;DHT22;58753;49.440;11.126;2022-12-20T07:46:49;1.33;89.53
71096;DHT22;58753;49.440;11.126;2022-12-20T07:49:15;1.34;89.52
71096;DHT22;58753;49.440;11.126;2022-12-20T07:51:54;1.37;89.43
71096;DHT22;58753;49.440;11.126;2022-12-20T07:54:25;1.37;89.38
71096;DHT22;58753;49.440;11.126;2022-12-20T07:56:56;1.38;89.42
71096;DHT22;58753;49.440;11.126;2022-12-20T07:59:25;1.40;89.26
71096;DHT22;58753;49.440;11.126;2022-12-20T08:01:52;1.40;89.33
71096;DHT22;58753;49.440;11.126;2022-12-20T08:04:20;1.41;89.39
71096;DHT22;58753;49.440;11.126;2022-12-20T08:06:48;1.48;89.33
71096;DHT22;58753;49.440;11.126;2022-12-20T08:09:15;1.51;89.32
71096;DHT22;58753;49.440;11.126;2022-12-20T08:11:43;1.58;89.31
71096;DHT22;58753;49.440;11.126;2022-12-20T08:14:10;1.58;89.12
71096;DHT22;58753;49.440;11.126;2022-12-20T08:16:35;1.62;89.18
71096;DHT22;58753;49.440;11.126;2022-12-20T08:19:01;1.69;89.24
71096;DHT22;58753;49.440;11.126;2022-12-20T08:21:26;1.74;89.10
71096;DHT22;58753;49.440;11.126;2022-12-20T08:23:51;1.81;88.95
71096;DHT22;58753;49.440;11.126;2022-12-20T08:26:17;1.83;88.77
71096;DHT22;58753;49.440;11.126;2022-12-20T08:28:42;1.86;88.74
71096;DHT22;58753;49.440;11.126;2022-12-20T08:31:08;1.92;88.68
71096;DHT22;58753;49.440;11.126;2022-12-20T08:33:35;1.95;88.55
71096;DHT22;58753;49.440;11.126;2022-12-20T08:36:04;1.97;88.45
71096;DHT22;58753;49.440;11.126;2022-12-20T08:38:30;1.98;88.40
71096;DHT22;58753;49.440;11.126;2022-12-20T08:41:05;1.99;88.36
71096;DHT22;58753;49.440;11.126;2022-12-20T08:43:32;2.02;88.26
71096;DHT22;58753;49.440;11.126;2022-12-20T08:45:58;2.05;88.28
71096;DHT22;58753;49.440;11.126;2022-12-20T08:48:25;2.09;88.21
71096;DHT22;58753;49.440;11.126;2022-12-20T08:50:58;2.15;88.11
71096;DHT22;58753;49.440;11.126;2022-12-20T08:53:25;2.23;88.08
71096;DHT22;58753;49.440;11.126;2022-12-20T08:55:51;2.28;87.93
71096;DHT22;58753;49.440;11.126;2022-12-20T08:58:17;2.34;87.82
71096;DHT22;58753;49.440;11.126;2022-12-20T09:00:42;2.33;87.55
71096;DHT22;58753;49.440;11.126;2022-12-20T09:03:08;2.33;87.62
71096;DHT22;58753;49.440;11.126;2022-12-20T09:05:35;2.43;87.60
71096;DHT22;58753;49.440;11.126;2022-12-20T09:08:01;2.50;87.55
71096;DHT22;58753;49.440;11.126;2022-12-20T09:10:26;2.54;87.30
71096;DHT22;58753;49.440;11.126;2022-12-20T09:12:51;2.64;87.17
71096;DHT22;58753;49.440;11.126;2022-12-20T09:15:17;2.73;87.19
71096;DHT22;58753;49.440;11.126;2022-12-20T09:17:42;2.80;86.93
71096;DHT22;58753;49.440;11.126;2022-12-20T09:20:08;2.83;86.74
71096;DHT22;58753;49.440;11.126;2022-12-20T09:22:33;2.88;86.46
71096;DHT22;58753;49.440;11.126;2022-12-20T09:24:59;2.90;86.25
71096;DHT22;58753;49.440;11.126;2022-12-20T09:27:24;2.93;86.13
71096;DHT22;58753;49.440;11.126;2022-12-20T09:29:49;2.91;85.94
71096;DHT22;58753;49.440;11.126;2022-12-20T09:32:15;2.94;85.74
71096;DHT22;58753;49.440;11.126;2022-12-20T09:34:40;2.93;85.45
71096;DHT22;58753;49.440;11.126;2022-12-20T09:37:06;2.91;85.28
71096;DHT22;58753;49.440;11.126;2022-12-20T09:39:31;2.90;85.28
71096;DHT22;58753;49.440;11.126;2022-12-20T09:41:57;2.90;85.20
71096;DHT22;58753;49.440;11.126;2022-12-20T09:46:57;2.93;85.17
71096;DHT22;58753;49.440;11.126;2022-12-20T09:49:27;2.95;85.09
71096;DHT22;58753;49.440;11.126;2022-12-20T09:59:55;2.97;84.62
71096;DHT22;58753;49.440;11.126;2022-12-20T10:02:23;2.94;84.56
71096;DHT22;58753;49.440;11.126;2022-12-20T10:04:49;2.93;84.49
71096;DHT22;58753;49.440;11.126;2022-12-20T10:07:32;2.85;84.31
71096;DHT22;58753;49.440;11.126;2022-12-20T10:13:11;2.81;84.49
71096;DHT22;58753;49.440;11.126;2022-12-20T10:15:51;2.79;84.55
71096;DHT22;58753;49.440;11.126;2022-12-20T10:18:31;2.80;84.70
71096;DHT22;58753;49.440;11.126;2022-12-20T10:21:07;2.84;84.76
71096;DHT22;58753;49.440;11.126;2022-12-20T10:23:39;2.95;84.87
71096;DHT22;58753;49.440;11.126;2022-12-20T10:26:12;3.01;84.88
71096;DHT22;58753;49.440;11.126;2022-12-20T10:28:38;3.05;84.86
71096;DHT22;58753;49.440;11.126;2022-12-20T10:31:15;3.17;84.86
71096;DHT22;58753;49.440;11.126;2022-12-20T10:33:41;3.24;84.82
71096;DHT22;58753;49.440;11.126;2022-12-20T10:36:28;3.31;84.74
71096;DHT22;58753;49.440;11.126;2022-12-20T10:38:58;3.42;84.78
71096;DHT22;58753;49.440;11.126;2022-12-20T10:44:27;3.60;84.27
71096;DHT22;58753;49.440;11.126;2022-12-20T10:46:55;3.69;83.99
71096;DHT22;58753;49.440;11.126;2022-12-20T10:49:27;3.69;83.88
71096;DHT22;58753;49.440;11.126;2022-12-20T10:51:55;3.66;83.53
71096;DHT22;58753;49.440;11.126;2022-12-20T10:54:41;3.63;83.39
71096;DHT22;58753;49.440;11.126;2022-12-20T11:00:00;3.65;83.30
71096;DHT22;58753;49.440;11.126;2022-12-20T11:02:31;3.62;83.18
71096;DHT22;58753;49.440;11.126;2022-12-20T11:07:35;3.68;83.21
71096;DHT22;58753;49.440;11.126;2022-12-20T11:10:21;3.73;83.05
71096;DHT22;58753;49.440;11.126;2022-12-20T11:12:53;3.80;83.14
71096;DHT22;58753;49.440;11.126;2022-12-20T11:15:30;3.82;83.03
71096;DHT22;58753;49.440;11.126;2022-12-20T11:18:10;3.90;83.07
71096;DHT22;58753;49.440;11.126;2022-12-20T11:21:25;4.02;83.11
71096;DHT22;58753;49.440;11.126;2022-12-20T11:24:09;4.11;82.95
71096;DHT22;58753;49.440;11.126;2022-12-20T11:34:48;4.18;82.17
71096;DHT22;58753;49.440;11.126;2022-12-20T11:37:20;4.18;81.98
71096;DHT22;58753;49.440;11.126;2022-12-20T11:45:44;4.25;81.68
71096;DHT22;58753;49.440;11.126;2022-12-20T11:51:07;4.23;81.38
71096;DHT22;58753;49.440;11.126;2022-12-20T11:53:47;4.17;81.22
71096;DHT22;58753;49.440;11.126;2022-12-20T11:56:20;4.10;81.18
71096;DHT22;58753;49.440;11.126;2022-12-20T12:01:45;3.94;81.32
71096;DHT22;58753;49.440;11.126;2022-12-20T12:04:17;3.94;81.36
71096;DHT22;58753;49.440;11.126;2022-12-20T12:09:43;3.89;81.50
71096;DHT22;58753;49.440;11.126;2022-12-20T12:12:25;3.89;81.52
71096;DHT22;58753;49.440;11.126;2022-12-20T12:14:58;3.93;81.61
71096;DHT22;58753;49.440;11.126;2022-12-20T12:20:33;4.10;81.89
71096;DHT22;58753;49.440;11.126;2022-12-20T12:23:12;4.18;81.83
71096;DHT22;58753;49.440;11.126;2022-12-20T12:25:40;4.33;81.86
71096;DHT22;58753;49.440;11.126;2022-12-20T12:28:05;4.47;81.79
71096;DHT22;58753;49.440;11.126;2022-12-20T12:30:37;4.58;81.41
71096;DHT22;58753;49.440;11.126;2022-12-20T12:33:11;4.60;81.10
71096;DHT22;58753;49.440;11.126;2022-12-20T12:35:46;4.60;80.73
71096;DHT22;58753;49.440;11.126;2022-12-20T12:38:38;4.65;80.76
71096;DHT22;58753;49.440;11.126;2022-12-20T12:43:43;4.78;80.44
71096;DHT22;58753;49.440;11.126;2022-12-20T12:46:32;4.76;80.08
71096;DHT22;58753;49.440;11.126;2022-12-20T12:49:11;4.75;80.04
71096;DHT22;58753;49.440;11.126;2022-12-20T12:51:41;4.72;79.73
71096;DHT22;58753;49.440;11.126;2022-12-20T12:56:38;4.74;79.49
71096;DHT22;58753;49.440;11.126;2022-12-20T13:01:46;4.65;79.42
71096;DHT22;58753;49.440;11.126;2022-12-20T13:11:53;4.53;79.63
71096;DHT22;58753;49.440;11.126;2022-12-20T13:16:46;4.51;79.67
71096;DHT22;58753;49.440;11.126;2022-12-20T13:21:55;4.45;79.67
71096;DHT22;58753;49.440;11.126;2022-12-20T13:32:56;4.38;79.66
71096;DHT22;58753;49.440;11.126;2022-12-20T13:37:55;4.33;79.82
71096;DHT22;58753;49.440;11.126;2022-12-20T13:42:56;4.30;80.07
71096;DHT22;58753;49.440;11.126;2022-12-20T13:45:23;4.31;80.14
71096;DHT22;58753;49.440;11.126;2022-12-20T13:47:53;4.29;80.09
71096;DHT22;58753;49.440;11.126;2022-12-20T13:50:23;4.25;80.19
71096;DHT22;58753;49.440;11.126;2022-12-20T13:52:50;4.27;80.18
71096;DHT22;58753;49.440;11.126;2022-12-20T13:55:37;4.27;80.24
71096;DHT22;58753;49.440;11.126;2022-12-20T13:58:16;4.24;80.31
71096;DHT22;58753;49.440;11.126;2022-12-20T14:00:42;4.20;80.29
71096;DHT22;58753;49.440;11.126;2022-12-20T14:03:28;4.16;80.33
71096;DHT22;58753;49.440;11.126;2022-12-20T14:06:00;4.11;80.34
71096;DHT22;58753;49.440;11.126;2022-12-20T14:08:32;4.07;80.32
71096;DHT22;58753;49.440;11.126;2022-12-20T14:13:34;3.99;80.54
71096;DHT22;58753;49.440;11.126;2022-12-20T14:16:10;3.93;80.61
71096;DHT22;58753;49.440;11.126;2022-12-20T14:18:38;3.86;80.61
71096;DHT22;58753;49.440;11.126;2022-12-20T14:21:05;3.83;80.66
71096;DHT22;58753;49.440;11.126;2022-12-20T14:23:36;3.76;80.73
71096;DHT22;58753;49.440;11.126;2022-12-20T14:26:03;3.73;81.20
71096;DHT22;58753;49.440;11.126;2022-12-20T14:29:01;3.72;81.20
71096;DHT22;58753;49.440;11.126;2022-12-20T14:34:10;3.72;81.42
71096;DHT22;58753;49.440;11.126;2022-12-20T14:36:37;3.70;81.45
71096;DHT22;58753;49.440;11.126;2022-12-20T14:44:31;3.62;81.67
71096;DHT22;58753;49.440;11.126;2022-12-20T14:49:26;3.59;82.11
71096;DHT22;58753;49.440;11.126;2022-12-20T14:54:31;3.54;81.91
71096;DHT22;58753;49.440;11.126;2022-12-20T14:56:57;3.54;82.09
71096;DHT22;58753;49.440;11.126;2022-12-20T14:59:25;3.49;82.20
71096;DHT22;58753;49.440;11.126;2022-12-20T15:01:51;3.49;82.37
71096;DHT22;58753;49.440;11.126;2022-12-20T15:04:32;3.51;82.51
71096;DHT22;58753;49.440;11.126;2022-12-20T15:07:02;3.55;82.57
71096;DHT22;58753;49.440;11.126;2022-12-20T15:09:27;3.56;82.67
71096;DHT22;58753;49.440;11.126;2022-12-20T15:11:55;3.55;82.50
71096;DHT22;58753;49.440;11.126;2022-12-20T15:14:37;3.52;82.63
71096;DHT22;58753;49.440;11.126;2022-12-20T15:17:08;3.52;82.56
71096;DHT22;58753;49.440;11.126;2022-12-20T15:19:34;3.42;82.47
71096;DHT22;58753;49.440;11.126;2022-12-20T15:22:00;3.42;82.76
71096;DHT22;58753;49.440;11.126;2022-12-20T15:24:27;3.40;82.79
71096;DHT22;58753;49.440;11.126;2022-12-20T15:26:53;3.40;82.91
71096;DHT22;58753;49.440;11.126;2022-12-20T15:29:26;3.40;82.89
71096;DHT22;58753;49.440;11.126;2022-12-20T15:32:02;3.39;83.11
71096;DHT22;58753;49.440;11.126;2022-12-20T15:34:33;3.43;83.19
71096;DHT22;58753;49.440;11.126;2022-12-20T15:36:59;3.43;83.34
71096;DHT22;58753;49.440;11.126;2022-12-20T15:39:26;3.42;83.25
71096;DHT22;58753;49.440;11.126;2022-12-20T15:41:52;3.39;83.29
71096;DHT22;58753;49.440;11.126;2022-12-20T15:44:19;3.39;83.32
71096;DHT22;58753;49.440;11.126;2022-12-20T15:46:46;3.39;83.42
71096;DHT22;58753;49.440;11.126;2022-12-20T15:49:17;3.38;83.42
71096;DHT22;58753;49.440;11.126;2022-12-20T15:51:44;3.34;83.31
71096;DHT22;58753;49.440;11.126;2022-12-20T15:56:40;3.25;83.50
71096;DHT22;58753;49.440;11.126;2022-12-20T15:59:06;3.25;83.67
71096;DHT22;58753;49.440;11.126;2022-12-20T16:01:35;3.22;83.73
71096;DHT22;58753;49.440;11.126;2022-12-20T16:04:02;3.25;83.75
71096;DHT22;58753;49.440;11.126;2022-12-20T16:06:27;3.22;83.74
71096;DHT22;58753;49.440;11.126;2022-12-20T16:08:52;3.21;83.96
71096;DHT22;58753;49.440;11.126;2022-12-20T16:11:27;3.25;84.09
71096;DHT22;58753;49.440;11.126;2022-12-20T16:13:54;3.28;84.16
71096;DHT22;58753;49.440;11.126;2022-12-20T16:16:26;3.31;84.07
71096;DHT22;58753;49.440;11.126;2022-12-20T16:18:51;3.28;83.92
71096;DHT22;58753;49.440;11.126;2022-12-20T16:21:29;3.28;83.99
71096;DHT22;58753;49.440;11.126;2022-12-20T16:23:58;3.24;83.89
71096;DHT22;58753;49.440;11.126;2022-12-20T16:26:25;3.21;83.91
71096;DHT22;58753;49.440;11.126;2022-12-20T16:28:51;3.17;83.97
71096;DHT22;58753;49.440;11.126;2022-12-20T16:31:31;3.09;84.17
71096;DHT22;58753;49.440;11.126;2022-12-20T16:34:19;3.08;84.22
71096;DHT22;58753;49.440;11.126;2022-12-20T16:36:46;3.04;84.14
71096;DHT22;58753;49.440;11.126;2022-12-20T16:39:11;2.97;84.11
71096;DHT22;58753;49.440;11.126;2022-12-20T16:41:39;2.91;84.24
71096;DHT22;58753;49.440;11.126;2022-12-20T16:44:05;2.85;84.25
71096;DHT22;58753;49.440;11.126;2022-12-20T16:46:31;2.83;84.37
71096;DHT22;58753;49.440;11.126;2022-12-20T16:48:59;2.76;84.34
71096;DHT22;58753;49.440;11.126;2022-12-20T16:51:44;2.68;84.48
71096;DHT22;58753;49.440;11.126;2022-12-20T16:54:19;2.61;84.69
71096;DHT22;58753;49.440;11.126;2022-12-20T16:56:45;2.61;84.75
71096;DHT22;58753;49.440;11.126;2022-12-20T16:59:12;2.60;84.96
71096;DHT22;58753;49.440;11.126;2022-12-20T17:01:38;2.54;84.92
71096;DHT22;58753;49.440;11.126;2022-12-20T17:04:05;2.49;85.30
71096;DHT22;58753;49.440;11.126;2022-12-20T17:06:31;2.49;85.37
71096;DHT22;58753;49.440;11.126;2022-12-20T17:08:57;2.49;85.49
71096;DHT22;58753;49.440;11.126;2022-12-20T17:11:28;2.43;85.58
71096;DHT22;58753;49.440;11.126;2022-12-20T17:13:55;2.43;85.54
71096;DHT22;58753;49.440;11.126;2022-12-20T17:16:21;2.34;85.69
71096;DHT22;58753;49.440;11.126;2022-12-20T17:18:50;2.30;85.74
71096;DHT22;58753;49.440;11.126;2022-12-20T17:21:48;2.33;86.07
71096;DHT22;58753;49.440;11.126;2022-12-20T17:24:18;2.37;86.44
71096;DHT22;58753;49.440;11.126;2022-12-20T17:26:44;2.42;86.55
71096;DHT22;58753;49.440;11.126;2022-12-20T17:29:11;2.47;86.59
71096;DHT22;58753;49.440;11.126;2022-12-20T17:31:38;2.47;86.37
71096;DHT22;58753;49.440;11.126;2022-12-20T17:34:24;2.44;86.40